Centralia, Washington
Current Conditions -  °F | °C
As of 1:15 AM on Monday 24 Nov 2014 (Local Time) from KCLS Reporting Station
Moderate Fog Moderate Fog  
Wind Chill: 43°   Ceiling: 400
Heat Index: 43°   Visibility: 0.25mi
Dew Point: 43°   Wind: 3mph
Humidity: 100%   Direction: 200°SSW
Pressure: 30.38"   Gusts: NA
Location:  46.73°N, 122.95°W
Report Text: KCLS 240915Z AUTO 20003KT 1/4SM FG OVC004 06/06 A3038 RMK AO2
Loading
Personal Weather Stations






























Interactive Weather Map New forecast layout! Learn more

10-Day Weather Forecast

Advertisements
Track Severe Weather on mobile